Time;durP1;ratioP1;P1;durP2;ratioP2;P2;SDS_P1;SDS_P2;PMS_P1;PMS_P2;Temp;Humidity;BMP_temperature;BMP_pressure;BME280_temperature;BME280_humidity;BME280_pressure;Samples;Min_cycle;Max_cycle;Signal;HPM_P1;HPM_P2
2021/07/09 00:02:08;;;;;;;6.47;3.10;;;;;;;21.23;61.55;101523.75;3559562;40;20081;-74
2021/07/09 00:04:35;;;;;;;10.88;3.53;;;;;;;21.15;62.04;101512.69;3571779;39;20048;-74
2021/07/09 00:07:02;;;;;;;8.65;3.22;;;;;;;21.16;62.16;101522.38;3573909;39;20053;-74
2021/07/09 00:09:29;;;;;;;6.03;2.47;;;;;;;21.12;61.83;101516.34;3575839;39;20134;-74
2021/07/09 00:11:57;;;;;;;5.75;2.75;;;;;;;21.14;62.09;101524.25;3569897;40;20138;-74
2021/07/09 00:14:27;;;;;;;5.35;2.60;;;;;;;21.12;61.82;101515.50;3567587;40;20068;-74
2021/07/09 00:16:54;;;;;;;7.50;2.65;;;;;;;21.10;62.97;101509.44;3567876;39;20096;-74
2021/07/09 00:19:21;;;;;;;7.40;2.72;;;;;;;21.08;62.49;101508.63;3565549;40;20405;-74
2021/07/09 00:21:50;;;;;;;4.72;2.10;;;;;;;21.11;62.06;101513.78;3574077;39;20045;-74
2021/07/09 00:24:18;;;;;;;4.43;2.20;;;;;;;21.07;62.67;101509.56;3574866;40;20048;-74
2021/07/09 00:26:44;;;;;;;6.38;2.58;;;;;;;21.09;62.44;101513.03;3570347;40;20306;-74
2021/07/09 00:29:12;;;;;;;6.07;2.88;;;;;;;21.08;63.22;101513.94;3569306;40;20068;-74
2021/07/09 00:31:38;;;;;;;6.15;3.15;;;;;;;21.08;62.85;101519.25;3569990;40;20138;-75
2021/07/09 00:34:07;;;;;;;5.78;2.75;;;;;;;21.07;63.08;101512.22;3570408;39;20129;-73
2021/07/09 00:36:35;;;;;;;6.90;3.22;;;;;;;21.08;62.97;101514.78;3568591;40;20064;-74
2021/07/09 00:39:05;;;;;;;6.68;3.00;;;;;;;21.05;62.93;101503.50;3569346;40;20142;-74
2021/07/09 00:41:32;;;;;;;8.20;3.08;;;;;;;21.05;62.86;101508.81;3569014;40;20170;-73
2021/07/09 00:43:59;;;;;;;5.22;2.40;;;;;;;21.02;62.43;101501.00;3572229;39;20407;-75
2021/07/09 00:46:30;;;;;;;6.65;3.22;;;;;;;21.03;62.49;101511.53;3573397;39;20384;-74
2021/07/09 00:48:58;;;;;;;8.07;2.97;;;;;;;20.94;62.77;101502.28;3574416;39;20084;-73
2021/07/09 00:51:25;;;;;;;7.47;3.10;;;;;;;20.90;62.71;101503.38;3565436;40;20068;-73
2021/07/09 00:53:52;;;;;;;6.03;2.45;;;;;;;20.89;62.99;101501.66;3564748;40;20069;-74
2021/07/09 00:56:20;;;;;;;6.57;2.67;;;;;;;20.86;63.37;101503.63;3569130;40;20072;-74
2021/07/09 00:58:51;;;;;;;7.20;3.20;;;;;;;20.85;62.84;101501.91;3568724;39;20062;-74
2021/07/09 01:01:18;;;;;;;7.30;3.05;;;;;;;20.78;63.65;101506.66;3571016;39;20068;-74
2021/07/09 01:03:46;;;;;;;6.68;3.10;;;;;;;20.76;63.15;101505.91;3574140;39;20077;-74
2021/07/09 01:06:13;;;;;;;7.50;3.40;;;;;;;20.70;63.80;101493.81;3571446;39;20323;-74
2021/07/09 01:08:41;;;;;;;6.90;3.00;;;;;;;20.70;63.50;101503.56;3554736;40;20054;-74
2021/07/09 01:11:09;;;;;;;7.25;3.35;;;;;;;20.72;63.68;101501.69;3572108;39;20072;-74
2021/07/09 01:13:40;;;;;;;9.60;3.70;;;;;;;20.70;63.98;101495.59;3573159;39;20072;-75
2021/07/09 01:16:07;;;;;;;7.38;3.38;;;;;;;20.65;63.92;101493.19;3567866;39;20219;-73
2021/07/09 01:18:35;;;;;;;7.50;3.47;;;;;;;20.67;64.20;101501.06;3564547;40;20069;-74
2021/07/09 01:21:07;;;;;;;9.43;3.75;;;;;;;20.64;64.00;101490.63;3569047;40;20429;-74
2021/07/09 01:23:35;;;;;;;5.97;2.40;;;;;;;20.62;63.96;101495.13;3562613;40;20061;-74
2021/07/09 01:26:04;;;;;;;5.65;2.65;;;;;;;20.61;63.82;101498.75;3573631;39;20600;-74
2021/07/09 01:28:31;;;;;;;6.93;2.95;;;;;;;20.61;64.20;101493.44;3562081;40;20069;-74
2021/07/09 01:30:59;;;;;;;7.57;3.03;;;;;;;20.59;64.03;101490.00;3565905;39;20306;-74
2021/07/09 01:33:27;;;;;;;5.70;2.35;;;;;;;20.62;64.32;101500.44;3563669;40;20081;-74
2021/07/09 01:35:54;;;;;;;8.88;4.07;;;;;;;20.60;64.79;101503.19;3565803;40;20455;-74
2021/07/09 01:38:21;;;;;;;7.30;3.47;;;;;;;20.59;64.23;101500.63;3566040;40;20093;-73
2021/07/09 01:40:48;;;;;;;6.72;3.08;;;;;;;20.59;64.18;101497.97;3569227;39;20535;-73
2021/07/09 01:43:15;;;;;;;7.70;3.38;;;;;;;20.59;64.40;101495.31;3574577;39;20930;-75
2021/07/09 01:45:42;;;;;;;9.07;4.17;;;;;;;20.58;64.55;101493.56;3564670;39;20065;-75
2021/07/09 01:48:09;;;;;;;7.65;3.33;;;;;;;20.59;64.38;101497.97;3571106;39;20325;-74
2021/07/09 01:50:35;;;;;;;6.47;3.25;;;;;;;20.59;64.83;101497.97;3570223;40;20848;-74
2021/07/09 01:53:02;;;;;;;6.33;2.63;;;;;;;20.60;64.08;101495.22;3569948;39;20048;-74
2021/07/09 01:55:29;;;;;;;6.63;3.05;;;;;;;20.59;64.84;101492.66;3568568;39;20769;-74
2021/07/09 01:57:56;;;;;;;6.82;2.42;;;;;;;20.57;64.33;101486.56;3566352;39;20053;-74
2021/07/09 02:00:25;;;;;;;7.60;3.40;;;;;;;20.58;64.97;101483.84;3569955;39;20162;-74
2021/07/09 02:02:52;;;;;;;9.35;3.65;;;;;;;20.55;64.83;101488.44;3560149;39;20057;-74
2021/07/09 02:05:22;;;;;;;8.02;3.28;;;;;;;20.59;64.94;101490.00;3566168;40;20139;-74
2021/07/09 02:07:52;;;;;;;5.80;2.47;;;;;;;20.57;64.56;101491.88;3567879;39;20127;-74
2021/07/09 02:10:20;;;;;;;7.15;3.45;;;;;;;20.54;65.17;101487.59;3558642;39;20426;-73
2021/07/09 02:12:50;;;;;;;8.52;3.80;;;;;;;20.52;65.32;101492.09;3570521;39;20053;-74
2021/07/09 02:15:17;;;;;;;5.88;2.92;;;;;;;20.51;64.81;101497.50;3563123;40;20434;-74
2021/07/09 02:17:44;;;;;;;8.27;3.30;;;;;;;20.52;65.10;101496.56;3568668;40;20064;-74
2021/07/09 02:20:17;;;;;;;4.72;2.17;;;;;;;20.54;64.94;101497.34;3559425;40;20077;-74
2021/07/09 02:22:45;;;;;;;4.78;2.17;;;;;;;20.50;64.60;101495.78;3564359;40;20081;-74
2021/07/09 02:25:14;;;;;;;5.97;2.15;;;;;;;20.51;64.21;101492.19;3565738;39;20056;-74
2021/07/09 02:27:44;;;;;;;6.55;2.90;;;;;;;20.47;64.43;101484.38;3562327;40;20076;-74
2021/07/09 02:30:16;;;;;;;5.82;2.63;;;;;;;20.47;64.48;101481.72;3555337;40;20154;-74
2021/07/09 02:32:45;;;;;;;5.28;2.30;;;;;;;20.44;64.47;101471.25;3568873;40;20146;-75
2021/07/09 02:35:17;;;;;;;5.00;2.10;;;;;;;20.45;64.45;101477.41;3566247;40;20052;-75
2021/07/09 02:37:47;;;;;;;6.95;3.28;;;;;;;20.40;65.53;101475.00;3557605;40;20060;-73
2021/07/09 02:40:17;;;;;;;6.78;3.33;;;;;;;20.40;65.76;101466.19;3573979;39;20430;-73
2021/07/09 02:42:47;;;;;;;7.90;3.40;;;;;;;20.40;65.92;101472.34;3569325;39;20049;-74
2021/07/09 02:45:16;;;;;;;5.82;2.47;;;;;;;20.36;64.80;101467.28;3562271;39;20314;-74
2021/07/09 02:47:44;;;;;;;7.25;3.47;;;;;;;20.36;65.45;101470.78;3570390;39;20055;-74
2021/07/09 02:50:14;;;;;;;6.65;3.05;;;;;;;20.37;65.29;101469.84;3565747;39;20073;-73
2021/07/09 02:52:44;;;;;;;6.97;3.22;;;;;;;20.38;65.30;101460.97;3575439;39;20650;-74
2021/07/09 02:55:15;;;;;;;5.85;2.72;;;;;;;20.37;64.94;101463.69;3553475;40;20093;-74
2021/07/09 02:57:42;;;;;;;9.52;3.80;;;;;;;20.33;65.83;101464.78;3568985;40;20122;-74
2021/07/09 03:00:15;;;;;;;8.15;3.17;;;;;;;20.36;64.68;101460.16;3569645;40;20446;-74
2021/07/09 03:02:43;;;;;;;7.97;3.63;;;;;;;20.27;65.75;101450.03;3552102;40;20189;-74
2021/07/09 03:05:11;;;;;;;7.97;3.67;;;;;;;20.31;65.53;101454.25;3568314;39;20425;-74
2021/07/09 03:07:38;;;;;;;8.30;3.45;;;;;;;20.29;65.31;101450.81;3569103;39;20052;-74
2021/07/09 03:10:07;;;;;;;8.95;3.65;;;;;;;20.22;65.80;101441.44;3559100;40;20061;-74
2021/07/09 03:12:35;;;;;;;7.32;3.42;;;;;;;20.26;65.73;101450.97;3570228;40;20158;-75
2021/07/09 03:15:04;;;;;;;10.35;4.20;;;;;;;20.27;65.61;101446.50;3557961;40;20058;-74
2021/07/09 03:17:31;;;;;;;8.27;3.65;;;;;;;20.23;65.88;101448.50;3566998;39;20049;-74
2021/07/09 03:19:59;;;;;;;8.37;3.33;;;;;;;20.23;65.78;101445.84;3563168;40;20064;-74
2021/07/09 03:22:25;;;;;;;;;;;;;;;20.27;63.61;101442.06;3571161;39;20314;-74
2021/07/09 03:24:52;;;;;;;8.95;3.55;;;;;;;20.22;65.77;101438.78;3571316;39;20385;-74
2021/07/09 03:27:19;;;;;;;7.35;3.50;;;;;;;20.19;65.92;101423.06;3569499;39;20044;-74
2021/07/09 03:29:47;;;;;;;7.85;3.65;;;;;;;20.18;65.25;101429.31;3570715;40;20134;-75
2021/07/09 03:32:14;;;;;;;6.88;2.63;;;;;;;20.17;65.40;101424.91;3573317;39;20407;-74
2021/07/09 03:34:40;;;;;;;7.50;3.08;;;;;;;20.14;65.46;101419.78;3569547;40;20051;-74
2021/07/09 03:37:07;;;;;;;7.57;3.10;;;;;;;20.11;65.51;101419.94;3568183;40;20187;-74
2021/07/09 03:39:34;;;;;;;7.55;3.20;;;;;;;20.11;66.30;101420.78;3570282;39;20064;-74
2021/07/09 03:42:01;;;;;;;8.32;3.28;;;;;;;20.09;66.28;101413.84;3570061;40;20057;-74
2021/07/09 03:44:28;;;;;;;8.77;3.90;;;;;;;20.07;66.67;101421.91;3568097;39;20064;-74
2021/07/09 03:46:55;;;;;;;10.75;4.05;;;;;;;20.06;66.53;101427.25;3573281;39;20053;-74
2021/07/09 03:49:22;;;;;;;8.60;4.05;;;;;;;20.04;66.25;101413.22;3560764;40;20423;-74
2021/07/09 03:51:49;;;;;;;;;;;;;;;20.11;64.27;101417.28;3572343;39;20060;-74
2021/07/09 03:54:16;;;;;;;9.43;4.22;;;;;;;20.03;65.98;101414.19;3568051;39;19948;-74
2021/07/09 03:56:43;;;;;;;13.43;4.82;;;;;;;20.03;65.81;101419.47;3576020;40;20392;-74
2021/07/09 03:59:09;;;;;;;8.00;3.87;;;;;;;20.00;65.36;101415.16;3570584;39;20049;-74
2021/07/09 04:01:36;;;;;;;11.17;4.73;;;;;;;19.99;65.89;101423.22;3556508;40;20166;-74
2021/07/09 04:04:04;;;;;;;10.85;4.07;;;;;;;19.98;65.89;101408.25;3562255;40;20060;-75
2021/07/09 04:06:31;;;;;;;9.00;4.10;;;;;;;19.93;66.27;101406.69;3562727;39;20056;-74
2021/07/09 04:08:57;;;;;;;10.40;5.10;;;;;;;19.91;66.43;101397.94;3572191;40;20158;-74
2021/07/09 04:11:24;;;;;;;9.20;4.30;;;;;;;19.91;66.33;101403.22;3572719;39;20053;-74
2021/07/09 04:13:51;;;;;;;10.13;4.03;;;;;;;19.88;66.60;101398.09;3570871;39;20870;-74
2021/07/09 04:16:18;;;;;;;11.63;4.82;;;;;;;19.87;66.37;101396.41;3567155;39;20442;-74
2021/07/09 04:18:45;;;;;;;10.60;4.88;;;;;;;19.87;66.30;101401.69;3571215;39;20070;-75
2021/07/09 04:21:12;;;;;;;10.52;4.75;;;;;;;19.87;66.04;101406.09;3569697;40;20150;-74
2021/07/09 04:23:39;;;;;;;10.68;4.75;;;;;;;19.85;66.30;101400.91;3570084;40;20138;-74
2021/07/09 04:26:05;;;;;;;11.70;4.53;;;;;;;19.83;66.48;101399.28;3562381;40;20142;-75
2021/07/09 04:28:32;;;;;;;10.82;4.40;;;;;;;19.82;66.57;101398.41;3570034;39;20370;-74
2021/07/09 04:30:59;;;;;;;9.30;4.50;;;;;;;19.80;66.31;101402.91;3568177;39;21032;-74
2021/07/09 04:33:26;;;;;;;10.60;4.30;;;;;;;19.76;66.85;101387.25;3570898;39;20080;-74
2021/07/09 04:35:52;;;;;;;12.47;4.80;;;;;;;19.80;66.69;101400.25;3571520;39;20064;-74
2021/07/09 04:38:19;;;;;;;10.38;4.88;;;;;;;19.79;66.98;101398.56;3568701;40;20057;-74
2021/07/09 04:40:46;;;;;;;10.70;4.35;;;;;;;19.80;66.70;101400.25;3571301;40;24686;-74
2021/07/09 04:43:13;;;;;;;7.70;3.70;;;;;;;19.80;66.47;101396.75;3568819;39;20067;-74
2021/07/09 04:45:40;;;;;;;11.55;4.40;;;;;;;19.80;66.88;101405.56;3570277;40;20059;-74
2021/07/09 04:48:07;;;;;;;8.63;3.97;;;;;;;19.82;66.99;101410.78;3564335;40;20115;-75
2021/07/09 04:50:34;;;;;;;9.93;4.05;;;;;;;19.79;67.45;101398.56;3566827;39;20060;-74
2021/07/09 04:53:02;;;;;;;10.23;3.50;;;;;;;19.82;66.75;101403.72;3570378;39;20150;-74
2021/07/09 04:55:29;;;;;;;10.70;3.70;;;;;;;19.82;67.01;101403.72;3570366;39;20411;-74
2021/07/09 04:57:55;;;;;;;11.80;4.78;;;;;;;19.82;66.81;101408.13;3568261;39;20483;-75
2021/07/09 05:00:22;;;;;;;10.55;4.22;;;;;;;19.81;67.08;101412.56;3571188;39;20706;-74
2021/07/09 05:02:49;;;;;;;12.30;4.87;;;;;;;19.80;66.85;101402.91;3563568;39;20111;-74
2021/07/09 05:05:16;;;;;;;11.67;4.43;;;;;;;19.81;66.84;101406.41;3553547;40;20064;-74
2021/07/09 05:07:45;;;;;;;9.32;3.35;;;;;;;19.78;66.82;101406.59;3575527;40;20138;-74
2021/07/09 05:10:12;;;;;;;9.05;3.70;;;;;;;19.77;66.95;101400.44;3570668;40;20052;-74
2021/07/09 05:12:40;;;;;;;12.05;4.53;;;;;;;19.77;67.40;101407.50;3579596;39;20165;-74
2021/07/09 05:15:07;;;;;;;10.35;4.60;;;;;;;19.77;67.28;101404.84;3569218;40;20053;-74
2021/07/09 05:17:35;;;;;;;8.90;3.70;;;;;;;19.73;66.79;101404.16;3570483;40;20422;-74
2021/07/09 05:20:04;;;;;;;10.82;4.82;;;;;;;19.75;67.12;101412.03;3563186;40;20391;-74
2021/07/09 05:22:31;;;;;;;11.48;4.65;;;;;;;19.69;67.10;101402.59;3564103;40;20061;-74
2021/07/09 05:24:59;;;;;;;9.35;3.55;;;;;;;19.73;66.55;101401.53;3554920;40;20124;-74
2021/07/09 05:27:28;;;;;;;7.25;3.45;;;;;;;19.71;66.78;101406.03;3569707;40;20186;-74
2021/07/09 05:29:55;;;;;;;8.07;3.55;;;;;;;19.69;66.86;101408.75;3562173;39;20419;-74
2021/07/09 05:32:26;;;;;;;10.30;3.67;;;;;;;19.73;66.66;101406.81;3575083;39;20049;-74
2021/07/09 05:34:55;;;;;;;8.85;3.58;;;;;;;19.71;66.63;101413.97;3568281;40;20951;-74
2021/07/09 05:37:22;;;;;;;8.20;3.78;;;;;;;19.68;66.69;101406.19;3573606;39;20056;-74
2021/07/09 05:39:50;;;;;;;7.88;3.33;;;;;;;19.62;66.50;101411.81;3576424;39;20384;-74
2021/07/09 05:42:17;;;;;;;6.20;2.85;;;;;;;19.56;66.41;101412.03;3562844;39;20074;-74
2021/07/09 05:44:43;;;;;;;8.82;3.53;;;;;;;19.49;66.61;101410.63;3573172;39;20146;-74
2021/07/09 05:47:14;;;;;;;6.90;3.03;;;;;;;19.47;66.42;101412.50;3574112;39;20385;-74
2021/07/09 05:49:41;;;;;;;5.60;2.83;;;;;;;19.35;66.75;101409.50;3555075;40;20257;-74
2021/07/09 05:52:08;;;;;;;7.97;3.42;;;;;;;19.32;66.89;101404.38;3579776;39;20324;-74
2021/07/09 05:54:36;;;;;;;7.55;3.28;;;;;;;19.27;66.81;101409.03;3575957;39;20504;-74
2021/07/09 05:57:03;;;;;;;6.97;2.78;;;;;;;19.25;66.66;101400.28;3570095;40;20416;-74
2021/07/09 05:59:30;;;;;;;6.85;3.08;;;;;;;19.24;66.77;101417.09;3571398;39;20111;-73
2021/07/09 06:01:57;;;;;;;6.65;2.95;;;;;;;19.22;66.83;101418.13;3558869;39;20068;-74
2021/07/09 06:04:24;;;;;;;8.63;3.63;;;;;;;19.20;67.02;101410.22;3574470;40;20040;-74
2021/07/09 06:06:52;;;;;;;10.80;3.88;;;;;;;19.16;67.33;101408.69;3572636;39;20069;-74
2021/07/09 06:09:19;;;;;;;7.43;3.45;;;;;;;19.16;67.29;101419.28;3567233;39;20065;-74
2021/07/09 06:11:47;;;;;;;;;;;;;;;19.20;65.55;101418.19;3567569;40;20072;-74
2021/07/09 06:14:14;;;;;;;7.53;3.35;;;;;;;19.14;67.43;101415.81;3565580;40;19940;-74
2021/07/09 06:16:41;;;;;;;8.00;3.40;;;;;;;19.11;67.24;101413.31;3567559;40;20059;-74
2021/07/09 06:19:08;;;;;;;8.30;3.78;;;;;;;19.10;66.58;101423.03;3567324;40;20065;-74
2021/07/09 06:21:35;;;;;;;9.07;4.03;;;;;;;19.08;66.70;101424.06;3568142;39;20330;-74
2021/07/09 06:24:02;;;;;;;10.90;3.80;;;;;;;19.04;66.51;101414.53;3571960;40;20398;-74
2021/07/09 06:26:29;;;;;;;8.25;3.90;;;;;;;19.00;66.42;101412.94;3572099;39;20501;-74
2021/07/09 06:28:57;;;;;;;11.90;3.72;;;;;;;18.96;66.52;101416.66;3562168;40;20071;-74
2021/07/09 06:31:24;;;;;;;11.52;3.47;;;;;;;18.92;66.67;101416.81;3564070;40;20062;-74
2021/07/09 06:33:50;;;;;;;8.50;3.72;;;;;;;18.89;66.93;101416.97;3563631;40;20056;-75
2021/07/09 06:36:18;;;;;;;9.77;4.20;;;;;;;18.87;66.44;101416.19;3554992;40;20397;-74
2021/07/09 06:38:45;;;;;;;8.90;4.45;;;;;;;18.87;66.89;101418.81;3568925;40;20048;-74
2021/07/09 06:41:13;;;;;;;10.02;4.55;;;;;;;18.85;66.82;101415.38;3557825;40;20334;-74
2021/07/09 06:43:40;;;;;;;;;;;;;;;18.90;64.79;101412.53;3565219;40;20065;-75
2021/07/09 06:46:07;;;;;;;9.68;4.72;;;;;;;18.81;66.75;101408.53;3561540;40;19969;-74
2021/07/09 06:48:33;;;;;;;8.00;4.00;;;;;;;18.79;66.56;101407.72;3562944;40;20053;-74
2021/07/09 06:51:00;;;;;;;8.57;4.13;;;;;;;18.78;66.50;101410.44;3570986;40;20416;-74
2021/07/09 06:53:28;;;;;;;8.90;3.77;;;;;;;18.77;67.08;101406.94;3567368;40;20493;-74
2021/07/09 06:55:55;;;;;;;8.43;3.20;;;;;;;18.77;66.71;101412.25;3565998;40;20049;-75
2021/07/09 06:58:22;;;;;;;6.93;3.40;;;;;;;18.77;66.55;101411.38;3570153;39;20058;-74
2021/07/09 07:00:48;;;;;;;7.83;3.53;;;;;;;18.78;66.18;101406.00;3554427;40;20733;-74
2021/07/09 07:03:15;;;;;;;7.45;3.00;;;;;;;18.80;66.24;101401.50;3566764;39;20333;-74
2021/07/09 07:05:42;;;;;;;10.45;3.20;;;;;;;18.82;66.02;101410.25;3573625;39;20076;-74
2021/07/09 07:08:16;;;;;;;7.30;2.97;;;;;;;18.87;65.51;101402.09;3576199;40;20127;-73
2021/07/09 07:10:49;;;;;;;6.78;2.88;;;;;;;18.87;65.38;101413.53;3560044;40;20284;-74
2021/07/09 07:13:16;;;;;;;7.70;3.13;;;;;;;18.85;65.49;101404.78;3556735;40;20048;-74
2021/07/09 07:15:42;;;;;;;7.15;2.90;;;;;;;18.86;65.67;101406.53;3571260;40;20646;-75
2021/07/09 07:18:10;;;;;;;6.53;2.92;;;;;;;18.89;65.44;101405.50;3567762;40;20077;-73
2021/07/09 07:20:41;;;;;;;6.88;2.95;;;;;;;18.88;65.20;101404.66;3579020;39;20032;-81
2021/07/09 07:23:33;;;;;;;8.50;3.15;;;;;;;18.98;64.94;101409.53;3648084;22;20913;-80
2021/07/09 07:47:21;;;;;;;8.00;3.30;;;;;;;19.11;64.38;101427.44;1222239;22;21458;-80
2021/07/09 08:05:11;;;;;;;8.27;2.88;;;;;;;19.25;63.92;101426.75;1215221;23;21816;-81
2021/07/09 08:17:07;;;;;;;6.32;3.10;;;;;;;19.45;63.86;101431.97;1218488;23;21487;-80
2021/07/09 08:23:08;;;;;;;7.82;3.35;;;;;;;19.58;63.91;101426.09;1212486;22;21443;-82
2021/07/09 08:50:08;;;;;;;5.68;2.63;;;;;;;20.94;61.55;101412.00;1218274;23;21459;-81
2021/07/09 09:07:41;;;;;;;10.00;3.13;;;;;;;21.19;58.74;101416.81;1218616;22;21477;-80
2021/07/09 09:34:43;;;;;;;6.40;2.35;;;;;;;22.17;57.96;101405.03;1260169;23;21379;-81
2021/07/09 09:57:46;;;;;;;5.38;2.47;;;;;;;22.21;54.93;101406.56;1216721;22;21468;-80
2021/07/09 10:31:53;;;;;;;4.03;2.00;;;;;;;21.13;54.96;101410.97;1218149;22;21569;-80
2021/07/09 10:34:53;;;;;;;3.28;1.55;;;;;;;21.08;54.24;101415.69;1130526;23;20237;-81
2021/07/09 11:12:06;;;;;;;3.53;1.50;;;;;;;21.75;54.74;101388.00;1219738;22;21953;-80
2021/07/09 11:30:38;;;;;;;3.67;1.52;;;;;;;22.79;53.44;101381.66;1204178;23;22010;-80
2021/07/09 11:33:36;;;;;;;4.50;2.00;;;;;;;22.90;51.42;101389.00;1131740;23;20177;-80
2021/07/09 11:57:38;;;;;;;2.78;1.40;;;;;;;22.59;51.36;101385.56;1218728;22;22002;-80
2021/07/09 12:23:34;;;;;;;2.20;1.13;;;;;;;22.76;50.45;101376.56;1210923;22;21487;-81
2021/07/09 12:32:28;;;;;;;3.75;1.52;;;;;;;22.84;50.60;101374.25;1216765;22;22110;-80
2021/07/09 12:50:46;;;;;;;2.55;1.25;;;;;;;23.26;50.46;101367.13;1213721;23;21475;-80
2021/07/09 12:59:33;;;;;;;3.08;1.10;;;;;;;23.67;49.73;101366.22;1221729;22;21492;-81
2021/07/09 13:19:58;;;;;;;2.95;1.42;;;;;;;24.33;48.52;101358.09;1220986;22;21533;-81
2021/07/09 13:22:50;;;;;;;2.75;1.10;;;;;;;24.31;48.54;101357.34;1207423;23;21493;-81
2021/07/09 13:34:45;;;;;;;1.63;0.85;;;;;;;24.14;48.01;101351.50;1217333;22;21656;-80
2021/07/09 13:52:54;;;;;;;1.80;0.90;;;;;;;23.09;49.22;101354.06;1210864;23;21623;-80
2021/07/09 14:05:04;;;;;;;1.08;0.60;;;;;;;22.45;50.31;101345.66;1217068;23;22039;-80
2021/07/09 14:20:22;;;;;;;1.55;0.80;;;;;;;21.75;52.35;101348.13;1217623;23;21520;-80
2021/07/09 14:48:18;;;;;;;6.10;1.70;;;;;;;21.00;55.53;101328.50;1216527;23;21951;-80
2021/07/09 14:51:10;;;;;;;4.18;1.70;;;;;;;21.02;55.82;101325.75;1210780;23;21509;-80
2021/07/09 15:30:19;;;;;;;3.75;1.30;;;;;;;21.24;55.04;101302.34;1220522;22;21494;-81
2021/07/09 15:33:27;;;;;;;4.25;1.75;;;;;;;21.16;56.13;101293.94;1137606;23;20177;-81
2021/07/09 15:54:27;;;;;;;2.70;1.27;;;;;;;20.88;55.36;101279.59;1218639;22;21465;-80
2021/07/09 16:15:46;;;;;;;2.67;1.05;;;;;;;20.88;56.12;101279.59;1205101;23;21478;-80
2021/07/09 16:30:17;;;;;;;2.65;1.33;;;;;;;20.91;55.60;101274.09;1217331;23;20186;-81
2021/07/09 16:33:33;;;;;;;3.25;1.17;;;;;;;20.91;55.92;101279.41;1138213;22;20236;-80
2021/07/09 16:45:29;;;;;;;3.17;1.30;;;;;;;20.87;56.17;101258.44;1218082;23;21454;-80
2021/07/09 17:12:20;;;;;;;3.72;1.70;;;;;;;20.77;56.47;101263.41;1217775;22;21537;-80
2021/07/09 17:15:18;;;;;;;5.82;1.80;;;;;;;20.74;57.12;101266.25;1206119;23;20102;-80
2021/07/09 17:17:48;;;;;;;2.78;1.30;;;;;;;20.69;56.94;101263.00;3672033;23;20674;-81
2021/07/09 17:29:19;;;;;;;4.90;1.30;;;;;;;20.51;56.18;101242.78;3738068;22;21356;-80
2021/07/09 17:32:12;;;;;;;5.68;1.58;;;;;;;20.49;56.47;101247.31;3786283;23;20354;-80
2021/07/09 17:35:04;;;;;;;3.13;1.60;;;;;;;20.44;56.53;101242.25;3728864;22;20048;-80
2021/07/09 17:40:58;;;;;;;2.40;1.23;;;;;;;20.37;56.45;101247.00;3767440;23;20710;31
2021/07/09 17:55:18;;;;;;;4.30;1.80;;;;;;;20.39;58.52;101245.16;3754813;22;20038;-81
2021/07/09 17:58:04;;;;;;;5.82;1.70;;;;;;;20.41;58.12;101243.25;3749206;23;20033;-81
2021/07/09 18:03:26;;;;;;;5.35;2.05;;;;;;;20.38;58.25;101239.94;3787915;22;20076;-81
2021/07/09 18:06:18;;;;;;;3.33;1.77;;;;;;;20.47;57.56;101239.44;3770750;22;20042;-80
2021/07/09 18:09:14;;;;;;;3.40;1.73;;;;;;;20.49;57.37;101244.69;3657947;22;20075;-80
2021/07/09 18:14:28;;;;;;;3.60;1.60;;;;;;;20.38;56.95;101216.91;3626427;39;20041;-81
2021/07/09 18:16:57;;;;;;;4.40;1.95;;;;;;;20.43;57.17;101225.47;3660154;22;20043;-80
2021/07/09 18:19:26;;;;;;;4.32;1.85;;;;;;;20.52;56.92;101239.19;3584279;39;21020;-81
2021/07/09 18:21:54;;;;;;;5.65;1.55;;;;;;;20.43;57.36;101225.47;3599728;39;20064;-81
2021/07/09 18:24:24;;;;;;;4.10;1.40;;;;;;;20.55;56.56;101244.31;3595872;39;20040;-81
2021/07/09 18:32:52;;;;;;;2.20;1.10;;;;;;;20.50;56.54;101236.63;3720383;22;20097;31
2021/07/09 18:38:27;;;;;;;2.60;1.20;;;;;;;20.41;56.90;101235.28;1220618;22;20323;-80
2021/07/09 18:40:58;;;;;;;3.30;1.38;;;;;;;20.22;57.36;101202.75;3599538;39;20024;-81
2021/07/09 18:43:25;;;;;;;3.05;1.45;;;;;;;20.33;58.20;101236.69;3680989;22;20400;-80
2021/07/09 18:46:25;;;;;;;4.07;1.45;;;;;;;20.32;57.60;101232.28;3652194;22;20147;-81
2021/07/09 18:48:52;;;;;;;2.92;1.30;;;;;;;20.15;57.86;101214.66;3627623;39;20089;-81
2021/07/09 18:51:51;;;;;;;3.72;1.75;;;;;;;20.24;57.53;101229.22;3703728;22;20068;-81
2021/07/09 18:54:18;;;;;;;2.40;1.30;;;;;;;19.91;57.93;101185.88;3574473;39;20043;-80
2021/07/09 18:59:43;;;;;;;4.57;1.42;;;;;;;20.08;58.21;101229.19;3607425;39;20054;-81
2021/07/09 19:02:13;;;;;;;3.75;1.83;;;;;;;20.02;58.19;101229.50;3583374;39;20084;-80
2021/07/09 19:04:40;;;;;;;4.10;1.40;;;;;;;19.96;58.54;101230.69;3594156;39;20051;-81
2021/07/09 19:07:26;;;;;;;3.75;1.50;;;;;;;19.93;58.12;101225.56;3581068;22;20109;-80
2021/07/09 19:09:56;;;;;;;3.00;1.50;;;;;;;19.85;58.58;101225.09;3665521;22;21049;-79
2021/07/09 19:12:42;;;;;;;4.15;1.80;;;;;;;19.84;58.40;101232.22;3671825;22;20051;-80
2021/07/09 19:15:35;;;;;;;3.42;1.20;;;;;;;19.81;57.78;101232.34;3634413;22;20045;-81
2021/07/09 19:18:06;;;;;;;4.47;1.40;;;;;;;19.76;58.83;101236.19;3592733;39;20044;-80
2021/07/09 19:20:36;;;;;;;2.65;1.40;;;;;;;19.72;59.48;101238.16;3797706;22;20029;31
2021/07/09 19:23:08;;;;;;;3.72;1.50;;;;;;;19.65;58.87;101220.84;3673690;22;20099;-80
2021/07/09 19:28:42;;;;;;;3.92;1.20;;;;;;;19.60;59.09;101217.59;3704422;22;20036;-80
2021/07/09 19:31:33;;;;;;;2.75;1.30;;;;;;;19.70;58.37;101230.28;1215903;22;21410;-79
2021/07/09 19:40:01;;;;;;;1.95;1.00;;;;;;;19.45;59.53;101222.72;3744831;22;20031;-80
2021/07/09 19:51:49;;;;;;;3.08;1.20;;;;;;;19.36;59.36;101241.75;3786705;22;21010;31
2021/07/09 19:57:42;;;;;;;2.55;0.85;;;;;;;19.26;59.21;101235.19;3762021;22;20501;-80
2021/07/09 20:09:21;;;;;;;1.27;0.82;;;;;;;19.14;60.19;101235.78;3775402;22;20025;-80
2021/07/09 20:11:55;;;;;;;3.15;1.10;;;;;;;19.11;59.95;101238.56;3839629;22;20164;-80
2021/07/09 20:17:33;;;;;;;2.60;1.00;;;;;;;19.05;60.17;101238.88;3692775;23;20057;-81
2021/07/09 20:20:05;;;;;;;2.40;1.25;;;;;;;18.93;60.83;101222.69;3822649;22;20077;-79
2021/07/09 20:22:46;;;;;;;4.40;1.38;;;;;;;18.96;60.68;101231.41;1212133;22;20238;-79
2021/07/09 20:25:13;;;;;;;3.33;1.35;;;;;;;18.70;60.99;101199.13;3788082;22;21435;-79
2021/07/09 20:27:41;;;;;;;1.70;1.02;;;;;;;18.70;61.35;101204.41;3738307;22;20112;-80
2021/07/09 20:33:29;;;;;;;3.00;1.30;;;;;;;18.84;60.07;101228.44;1258872;22;20175;-79
2021/07/09 20:39:01;;;;;;;3.38;1.45;;;;;;;18.63;61.29;101218.84;3764886;22;20036;-79
2021/07/09 20:41:52;;;;;;;3.30;1.33;;;;;;;18.75;60.50;101244.75;1209870;23;22076;-81
2021/07/09 20:53:33;;;;;;;2.47;1.20;;;;;;;18.57;60.31;101245.59;3719553;22;20436;-80
2021/07/09 21:02:29;;;;;;;3.28;1.30;;;;;;;18.46;60.55;101242.63;1223577;22;21489;-79
2021/07/09 21:14:37;;;;;;;3.63;1.13;;;;;;;18.31;61.08;101246.81;1221031;22;21401;-80
2021/07/09 21:29:37;;;;;;;2.53;1.20;;;;;;;17.97;62.57;101215.78;3820757;22;20019;-80
2021/07/09 21:32:05;;;;;;;1.80;0.90;;;;;;;17.94;63.38;101221.19;3699564;22;20065;-80
2021/07/09 21:38:03;;;;;;;3.55;1.15;;;;;;;18.10;62.28;101246.88;1219695;22;21919;-79
2021/07/09 21:43:45;;;;;;;2.83;1.00;;;;;;;18.12;62.29;101249.44;1217470;22;21626;-79
2021/07/09 21:49:38;;;;;;;2.03;0.88;;;;;;;18.12;63.12;101244.16;3798591;22;20043;-81
2021/07/09 21:52:31;;;;;;;2.13;1.00;;;;;;;18.16;62.79;101240.44;3804854;22;20939;-80
2021/07/09 22:04:28;;;;;;;2.05;0.82;;;;;;;18.30;63.15;101229.25;3752849;22;20041;-80
2021/07/09 22:10:22;;;;;;;1.70;0.90;;;;;;;18.38;62.38;101230.59;3764468;22;20039;-80
2021/07/09 22:12:50;;;;;;;2.25;0.93;;;;;;;18.36;63.53;101227.16;3807238;22;20095;-80
2021/07/09 22:15:51;;;;;;;2.45;0.90;;;;;;;18.42;63.08;101232.16;3752744;22;20080;-80
2021/07/09 22:18:43;;;;;;;2.33;0.85;;;;;;;18.46;62.68;101230.25;3794290;22;20035;-80
2021/07/09 22:21:36;;;;;;;1.52;0.60;;;;;;;18.47;62.46;101228.44;1212431;22;21574;-80
2021/07/09 22:27:24;;;;;;;2.20;0.95;;;;;;;18.47;63.38;101217.88;3753841;22;20696;-81